sensor_id;sensor_type;location;lat;lon;timestamp;P1;durP1;ratioP1;P2;durP2;ratioP2
35797;SDS011;21918;49.940;7.774;2023-06-22T00:02:00;6.63;;;6.03;;
35797;SDS011;21918;49.940;7.774;2023-06-22T00:04:27;5.82;;;5.35;;
35797;SDS011;21918;49.940;7.774;2023-06-22T00:06:53;8.13;;;5.65;;
35797;SDS011;21918;49.940;7.774;2023-06-22T00:09:21;7.32;;;6.20;;
35797;SDS011;21918;49.940;7.774;2023-06-22T00:11:48;8.15;;;6.65;;
35797;SDS011;21918;49.940;7.774;2023-06-22T00:14:15;6.80;;;6.20;;
35797;SDS011;21918;49.940;7.774;2023-06-22T00:16:41;8.88;;;6.43;;
35797;SDS011;21918;49.940;7.774;2023-06-22T00:19:08;6.70;;;6.10;;
35797;SDS011;21918;49.940;7.774;2023-06-22T00:21:36;6.47;;;5.88;;
35797;SDS011;21918;49.940;7.774;2023-06-22T00:24:04;6.80;;;6.10;;
35797;SDS011;21918;49.940;7.774;2023-06-22T00:26:33;6.70;;;6.10;;
35797;SDS011;21918;49.940;7.774;2023-06-22T00:28:59;7.35;;;6.75;;
35797;SDS011;21918;49.940;7.774;2023-06-22T00:31:26;6.25;;;5.65;;
35797;SDS011;21918;49.940;7.774;2023-06-22T00:33:52;6.13;;;5.63;;
35797;SDS011;21918;49.940;7.774;2023-06-22T00:36:19;6.07;;;5.47;;
35797;SDS011;21918;49.940;7.774;2023-06-22T00:38:46;7.38;;;6.68;;
35797;SDS011;21918;49.940;7.774;2023-06-22T00:41:14;7.05;;;6.35;;
35797;SDS011;21918;49.940;7.774;2023-06-22T00:43:42;7.00;;;6.30;;
35797;SDS011;21918;49.940;7.774;2023-06-22T00:46:08;7.38;;;6.65;;
35797;SDS011;21918;49.940;7.774;2023-06-22T00:48:35;9.13;;;7.20;;
35797;SDS011;21918;49.940;7.774;2023-06-22T00:51:02;7.32;;;6.68;;
35797;SDS011;21918;49.940;7.774;2023-06-22T00:53:30;7.60;;;6.90;;
35797;SDS011;21918;49.940;7.774;2023-06-22T00:55:59;7.82;;;7.13;;
35797;SDS011;21918;49.940;7.774;2023-06-22T00:58:28;8.45;;;7.65;;
35797;SDS011;21918;49.940;7.774;2023-06-22T01:00:57;11.35;;;8.43;;
35797;SDS011;21918;49.940;7.774;2023-06-22T01:03:24;7.38;;;6.70;;
35797;SDS011;21918;49.940;7.774;2023-06-22T01:05:51;8.15;;;7.35;;
35797;SDS011;21918;49.940;7.774;2023-06-22T01:08:29;7.28;;;6.68;;
35797;SDS011;21918;49.940;7.774;2023-06-22T01:11:05;7.82;;;7.03;;
35797;SDS011;21918;49.940;7.774;2023-06-22T01:13:37;7.28;;;6.57;;
35797;SDS011;21918;49.940;7.774;2023-06-22T01:16:14;7.90;;;6.45;;
35797;SDS011;21918;49.940;7.774;2023-06-22T01:18:44;7.22;;;6.50;;
35797;SDS011;21918;49.940;7.774;2023-06-22T01:21:16;6.82;;;6.22;;
35797;SDS011;21918;49.940;7.774;2023-06-22T01:23:51;7.10;;;6.35;;
35797;SDS011;21918;49.940;7.774;2023-06-22T01:26:25;7.45;;;6.72;;
35797;SDS011;21918;49.940;7.774;2023-06-22T01:29:01;8.52;;;7.15;;
35797;SDS011;21918;49.940;7.774;2023-06-22T01:31:30;8.43;;;7.28;;
35797;SDS011;21918;49.940;7.774;2023-06-22T01:34:00;7.07;;;6.38;;
35797;SDS011;21918;49.940;7.774;2023-06-22T01:36:29;6.63;;;5.80;;
35797;SDS011;21918;49.940;7.774;2023-06-22T01:38:58;7.10;;;6.40;;
35797;SDS011;21918;49.940;7.774;2023-06-22T01:41:25;7.45;;;6.70;;
35797;SDS011;21918;49.940;7.774;2023-06-22T01:43:54;6.30;;;5.80;;
35797;SDS011;21918;49.940;7.774;2023-06-22T01:46:26;6.50;;;5.90;;
35797;SDS011;21918;49.940;7.774;2023-06-22T01:48:53;7.63;;;6.80;;
35797;SDS011;21918;49.940;7.774;2023-06-22T01:51:22;7.63;;;6.93;;
35797;SDS011;21918;49.940;7.774;2023-06-22T01:53:50;6.22;;;5.65;;
35797;SDS011;21918;49.940;7.774;2023-06-22T01:56:17;9.35;;;6.82;;
35797;SDS011;21918;49.940;7.774;2023-06-22T01:58:45;7.05;;;5.55;;
35797;SDS011;21918;49.940;7.774;2023-06-22T02:01:17;5.57;;;5.07;;
35797;SDS011;21918;49.940;7.774;2023-06-22T02:03:51;7.20;;;6.25;;
35797;SDS011;21918;49.940;7.774;2023-06-22T02:06:25;6.80;;;6.10;;
35797;SDS011;21918;49.940;7.774;2023-06-22T02:09:02;7.57;;;6.97;;
35797;SDS011;21918;49.940;7.774;2023-06-22T02:11:34;8.63;;;7.82;;
35797;SDS011;21918;49.940;7.774;2023-06-22T02:14:02;7.28;;;6.57;;
35797;SDS011;21918;49.940;7.774;2023-06-22T02:16:31;7.72;;;6.22;;
35797;SDS011;21918;49.940;7.774;2023-06-22T02:19:02;7.75;;;7.05;;
35797;SDS011;21918;49.940;7.774;2023-06-22T02:21:30;8.25;;;7.53;;
35797;SDS011;21918;49.940;7.774;2023-06-22T02:23:59;8.57;;;6.10;;
35797;SDS011;21918;49.940;7.774;2023-06-22T02:26:25;6.72;;;5.82;;
35797;SDS011;21918;49.940;7.774;2023-06-22T02:28:53;7.22;;;6.53;;
35797;SDS011;21918;49.940;7.774;2023-06-22T02:31:19;7.15;;;6.45;;
35797;SDS011;21918;49.940;7.774;2023-06-22T02:33:46;7.70;;;7.00;;
35797;SDS011;21918;49.940;7.774;2023-06-22T02:36:14;10.60;;;6.82;;
35797;SDS011;21918;49.940;7.774;2023-06-22T02:38:41;9.25;;;7.43;;
35797;SDS011;21918;49.940;7.774;2023-06-22T02:41:10;7.47;;;6.78;;
35797;SDS011;21918;49.940;7.774;2023-06-22T02:43:38;9.13;;;8.15;;
35797;SDS011;21918;49.940;7.774;2023-06-22T02:46:04;7.15;;;6.45;;
35797;SDS011;21918;49.940;7.774;2023-06-22T02:48:31;7.85;;;6.07;;
35797;SDS011;21918;49.940;7.774;2023-06-22T02:50:58;8.35;;;7.55;;
35797;SDS011;21918;49.940;7.774;2023-06-22T02:53:25;7.75;;;7.05;;
35797;SDS011;21918;49.940;7.774;2023-06-22T02:55:52;7.60;;;6.80;;
35797;SDS011;21918;49.940;7.774;2023-06-22T02:58:19;8.27;;;7.28;;
35797;SDS011;21918;49.940;7.774;2023-06-22T03:00:47;8.35;;;6.88;;
35797;SDS011;21918;49.940;7.774;2023-06-22T03:03:14;6.68;;;6.07;;
35797;SDS011;21918;49.940;7.774;2023-06-22T03:05:41;6.53;;;6.03;;
35797;SDS011;21918;49.940;7.774;2023-06-22T03:08:09;7.18;;;6.25;;
35797;SDS011;21918;49.940;7.774;2023-06-22T03:10:39;7.60;;;6.57;;
35797;SDS011;21918;49.940;7.774;2023-06-22T03:13:05;6.50;;;5.90;;
35797;SDS011;21918;49.940;7.774;2023-06-22T03:15:32;7.22;;;6.63;;
35797;SDS011;21918;49.940;7.774;2023-06-22T03:17:59;8.18;;;5.78;;
35797;SDS011;21918;49.940;7.774;2023-06-22T03:20:25;7.18;;;6.20;;
35797;SDS011;21918;49.940;7.774;2023-06-22T03:22:58;6.68;;;6.03;;
35797;SDS011;21918;49.940;7.774;2023-06-22T03:25:25;7.20;;;6.60;;
35797;SDS011;21918;49.940;7.774;2023-06-22T03:27:53;6.28;;;5.75;;
35797;SDS011;21918;49.940;7.774;2023-06-22T03:30:20;5.60;;;5.20;;
35797;SDS011;21918;49.940;7.774;2023-06-22T03:32:47;7.03;;;6.30;;
35797;SDS011;21918;49.940;7.774;2023-06-22T03:35:14;5.82;;;5.32;;
35797;SDS011;21918;49.940;7.774;2023-06-22T03:37:41;7.45;;;6.80;;
35797;SDS011;21918;49.940;7.774;2023-06-22T03:40:08;7.72;;;6.85;;
35797;SDS011;21918;49.940;7.774;2023-06-22T03:42:35;6.82;;;6.13;;
35797;SDS011;21918;49.940;7.774;2023-06-22T03:45:03;7.82;;;7.15;;
35797;SDS011;21918;49.940;7.774;2023-06-22T03:47:31;6.95;;;6.25;;
35797;SDS011;21918;49.940;7.774;2023-06-22T03:49:58;6.70;;;6.03;;
35797;SDS011;21918;49.940;7.774;2023-06-22T03:52:25;7.28;;;6.57;;
35797;SDS011;21918;49.940;7.774;2023-06-22T03:54:51;7.78;;;6.97;;
35797;SDS011;21918;49.940;7.774;2023-06-22T03:57:18;7.07;;;6.35;;
35797;SDS011;21918;49.940;7.774;2023-06-22T03:59:45;7.68;;;6.30;;
35797;SDS011;21918;49.940;7.774;2023-06-22T04:02:13;7.55;;;6.85;;
35797;SDS011;21918;49.940;7.774;2023-06-22T04:04:40;7.95;;;7.15;;
35797;SDS011;21918;49.940;7.774;2023-06-22T04:07:09;7.10;;;5.78;;
35797;SDS011;21918;49.940;7.774;2023-06-22T04:09:47;7.10;;;6.40;;
35797;SDS011;21918;49.940;7.774;2023-06-22T04:12:20;9.05;;;8.10;;
35797;SDS011;21918;49.940;7.774;2023-06-22T04:14:49;8.07;;;7.35;;
35797;SDS011;21918;49.940;7.774;2023-06-22T04:17:20;7.40;;;6.70;;
35797;SDS011;21918;49.940;7.774;2023-06-22T04:19:56;6.57;;;5.97;;
35797;SDS011;21918;49.940;7.774;2023-06-22T04:22:33;11.40;;;7.55;;
35797;SDS011;21918;49.940;7.774;2023-06-22T04:25:06;6.75;;;5.78;;
35797;SDS011;21918;49.940;7.774;2023-06-22T04:27:35;6.35;;;5.75;;
35797;SDS011;21918;49.940;7.774;2023-06-22T04:30:05;6.75;;;6.05;;
35797;SDS011;21918;49.940;7.774;2023-06-22T04:32:35;6.57;;;6.00;;
35797;SDS011;21918;49.940;7.774;2023-06-22T04:35:02;7.95;;;7.22;;
35797;SDS011;21918;49.940;7.774;2023-06-22T04:37:29;11.13;;;7.80;;
35797;SDS011;21918;49.940;7.774;2023-06-22T04:39:56;7.50;;;6.40;;
35797;SDS011;21918;49.940;7.774;2023-06-22T04:42:23;6.85;;;6.25;;
35797;SDS011;21918;49.940;7.774;2023-06-22T04:44:51;6.90;;;6.30;;
35797;SDS011;21918;49.940;7.774;2023-06-22T04:47:17;7.43;;;6.45;;
35797;SDS011;21918;49.940;7.774;2023-06-22T04:49:45;6.80;;;6.20;;
35797;SDS011;21918;49.940;7.774;2023-06-22T04:52:12;7.35;;;6.68;;
35797;SDS011;21918;49.940;7.774;2023-06-22T04:54:45;6.70;;;6.10;;
35797;SDS011;21918;49.940;7.774;2023-06-22T04:57:15;7.10;;;6.43;;
35797;SDS011;21918;49.940;7.774;2023-06-22T04:59:42;8.55;;;7.30;;
35797;SDS011;21918;49.940;7.774;2023-06-22T05:02:09;8.00;;;7.30;;
35797;SDS011;21918;49.940;7.774;2023-06-22T05:04:36;7.88;;;6.53;;
35797;SDS011;21918;49.940;7.774;2023-06-22T05:07:05;8.07;;;7.28;;
35797;SDS011;21918;49.940;7.774;2023-06-22T05:09:32;7.38;;;6.68;;
35797;SDS011;21918;49.940;7.774;2023-06-22T05:11:59;9.35;;;8.48;;
35797;SDS011;21918;49.940;7.774;2023-06-22T05:14:27;6.57;;;5.97;;
35797;SDS011;21918;49.940;7.774;2023-06-22T05:16:54;8.45;;;7.60;;
35797;SDS011;21918;49.940;7.774;2023-06-22T05:19:23;7.95;;;7.15;;
35797;SDS011;21918;49.940;7.774;2023-06-22T05:21:56;9.02;;;8.13;;
35797;SDS011;21918;49.940;7.774;2023-06-22T05:24:24;7.38;;;6.78;;
35797;SDS011;21918;49.940;7.774;2023-06-22T05:26:50;8.75;;;7.78;;
35797;SDS011;21918;49.940;7.774;2023-06-22T05:29:20;7.75;;;7.07;;
35797;SDS011;21918;49.940;7.774;2023-06-22T05:31:48;7.13;;;6.43;;
35797;SDS011;21918;49.940;7.774;2023-06-22T05:34:14;6.30;;;5.80;;
35797;SDS011;21918;49.940;7.774;2023-06-22T05:36:41;10.85;;;6.97;;
35797;SDS011;21918;49.940;7.774;2023-06-22T05:39:12;7.15;;;6.55;;
35797;SDS011;21918;49.940;7.774;2023-06-22T05:41:41;8.02;;;7.32;;
35797;SDS011;21918;49.940;7.774;2023-06-22T05:44:08;7.32;;;6.47;;
35797;SDS011;21918;49.940;7.774;2023-06-22T05:46:35;7.63;;;6.63;;
35797;SDS011;21918;49.940;7.774;2023-06-22T05:49:01;9.70;;;8.73;;
35797;SDS011;21918;49.940;7.774;2023-06-22T05:51:28;10.23;;;9.27;;
35797;SDS011;21918;49.940;7.774;2023-06-22T05:53:55;10.68;;;9.65;;
35797;SDS011;21918;49.940;7.774;2023-06-22T05:56:21;10.95;;;9.20;;
35797;SDS011;21918;49.940;7.774;2023-06-22T05:58:49;11.88;;;9.77;;
35797;SDS011;21918;49.940;7.774;2023-06-22T06:01:16;15.48;;;11.38;;
35797;SDS011;21918;49.940;7.774;2023-06-22T06:03:43;11.48;;;10.05;;
35797;SDS011;21918;49.940;7.774;2023-06-22T06:06:09;12.55;;;10.55;;
35797;SDS011;21918;49.940;7.774;2023-06-22T06:08:36;11.70;;;9.80;;
35797;SDS011;21918;49.940;7.774;2023-06-22T06:11:03;10.60;;;9.20;;
35797;SDS011;21918;49.940;7.774;2023-06-22T06:13:29;12.07;;;10.73;;
35797;SDS011;21918;49.940;7.774;2023-06-22T06:15:57;11.60;;;10.52;;
35797;SDS011;21918;49.940;7.774;2023-06-22T06:18:24;11.00;;;10.00;;
35797;SDS011;21918;49.940;7.774;2023-06-22T06:20:51;11.32;;;10.23;;
35797;SDS011;21918;49.940;7.774;2023-06-22T06:23:18;12.05;;;10.40;;
35797;SDS011;21918;49.940;7.774;2023-06-22T06:25:44;11.20;;;10.10;;
35797;SDS011;21918;49.940;7.774;2023-06-22T06:28:11;9.90;;;8.90;;
35797;SDS011;21918;49.940;7.774;2023-06-22T06:30:37;14.35;;;11.68;;
35797;SDS011;21918;49.940;7.774;2023-06-22T06:33:08;11.98;;;10.43;;
35797;SDS011;21918;49.940;7.774;2023-06-22T06:35:35;13.00;;;11.05;;
35797;SDS011;21918;49.940;7.774;2023-06-22T06:38:02;12.80;;;10.75;;
35797;SDS011;21918;49.940;7.774;2023-06-22T06:40:29;13.02;;;11.52;;
35797;SDS011;21918;49.940;7.774;2023-06-22T06:42:56;11.52;;;10.43;;
35797;SDS011;21918;49.940;7.774;2023-06-22T06:45:23;11.55;;;10.35;;
35797;SDS011;21918;49.940;7.774;2023-06-22T06:47:50;12.23;;;11.00;;
35797;SDS011;21918;49.940;7.774;2023-06-22T06:50:19;12.68;;;10.38;;
35797;SDS011;21918;49.940;7.774;2023-06-22T06:52:45;12.63;;;11.43;;
35797;SDS011;21918;49.940;7.774;2023-06-22T06:55:12;12.75;;;11.45;;
35797;SDS011;21918;49.940;7.774;2023-06-22T06:57:39;13.45;;;12.02;;
35797;SDS011;21918;49.940;7.774;2023-06-22T07:00:06;13.68;;;12.27;;
35797;SDS011;21918;49.940;7.774;2023-06-22T07:02:37;12.82;;;11.57;;
35797;SDS011;21918;49.940;7.774;2023-06-22T07:05:05;11.50;;;10.50;;
35797;SDS011;21918;49.940;7.774;2023-06-22T07:07:34;12.00;;;10.57;;
35797;SDS011;21918;49.940;7.774;2023-06-22T07:10:01;12.13;;;10.73;;
35797;SDS011;21918;49.940;7.774;2023-06-22T07:12:28;11.98;;;10.80;;
35797;SDS011;21918;49.940;7.774;2023-06-22T07:14:57;11.40;;;10.38;;
35797;SDS011;21918;49.940;7.774;2023-06-22T07:17:27;14.15;;;12.75;;
35797;SDS011;21918;49.940;7.774;2023-06-22T07:19:54;12.63;;;11.25;;
35797;SDS011;21918;49.940;7.774;2023-06-22T07:22:22;12.40;;;11.20;;
35797;SDS011;21918;49.940;7.774;2023-06-22T07:24:50;12.02;;;10.82;;
35797;SDS011;21918;49.940;7.774;2023-06-22T07:27:17;13.07;;;11.77;;
35797;SDS011;21918;49.940;7.774;2023-06-22T07:29:44;11.85;;;9.88;;
35797;SDS011;21918;49.940;7.774;2023-06-22T07:32:11;11.93;;;10.82;;
35797;SDS011;21918;49.940;7.774;2023-06-22T07:34:38;12.25;;;11.10;;
35797;SDS011;21918;49.940;7.774;2023-06-22T07:37:04;12.88;;;10.43;;
35797;SDS011;21918;49.940;7.774;2023-06-22T07:39:31;11.40;;;10.27;;
35797;SDS011;21918;49.940;7.774;2023-06-22T07:42:00;12.18;;;10.98;;
35797;SDS011;21918;49.940;7.774;2023-06-22T07:44:27;11.80;;;10.65;;
35797;SDS011;21918;49.940;7.774;2023-06-22T07:46:53;12.70;;;11.43;;
35797;SDS011;21918;49.940;7.774;2023-06-22T07:49:20;12.27;;;11.10;;
35797;SDS011;21918;49.940;7.774;2023-06-22T07:51:46;13.00;;;11.70;;
35797;SDS011;21918;49.940;7.774;2023-06-22T07:54:13;14.25;;;11.13;;
35797;SDS011;21918;49.940;7.774;2023-06-22T07:56:40;11.55;;;10.48;;
35797;SDS011;21918;49.940;7.774;2023-06-22T07:59:10;14.77;;;13.32;;
35797;SDS011;21918;49.940;7.774;2023-06-22T08:01:36;12.30;;;11.18;;
35797;SDS011;21918;49.940;7.774;2023-06-22T08:04:03;13.02;;;11.82;;
35797;SDS011;21918;49.940;7.774;2023-06-22T08:06:30;12.80;;;11.50;;
35797;SDS011;21918;49.940;7.774;2023-06-22T08:08:57;12.82;;;11.55;;
35797;SDS011;21918;49.940;7.774;2023-06-22T08:11:24;13.52;;;12.35;;
35797;SDS011;21918;49.940;7.774;2023-06-22T08:13:50;13.27;;;11.15;;
35797;SDS011;21918;49.940;7.774;2023-06-22T08:16:18;13.45;;;11.65;;
35797;SDS011;21918;49.940;7.774;2023-06-22T08:18:47;14.98;;;10.90;;
35797;SDS011;21918;49.940;7.774;2023-06-22T08:21:13;13.85;;;10.52;;
35797;SDS011;21918;49.940;7.774;2023-06-22T08:23:40;12.43;;;11.18;;
35797;SDS011;21918;49.940;7.774;2023-06-22T08:26:07;13.00;;;11.65;;
35797;SDS011;21918;49.940;7.774;2023-06-22T08:28:33;13.68;;;11.60;;
35797;SDS011;21918;49.940;7.774;2023-06-22T08:31:01;12.38;;;10.82;;
35797;SDS011;21918;49.940;7.774;2023-06-22T08:33:31;17.92;;;12.10;;
35797;SDS011;21918;49.940;7.774;2023-06-22T08:35:58;12.18;;;10.85;;
35797;SDS011;21918;49.940;7.774;2023-06-22T08:38:24;12.82;;;11.35;;
35797;SDS011;21918;49.940;7.774;2023-06-22T08:40:51;12.88;;;11.20;;
35797;SDS011;21918;49.940;7.774;2023-06-22T08:43:17;11.48;;;10.38;;
35797;SDS011;21918;49.940;7.774;2023-06-22T08:45:44;14.85;;;10.82;;
35797;SDS011;21918;49.940;7.774;2023-06-22T08:48:10;19.45;;;11.65;;
35797;SDS011;21918;49.940;7.774;2023-06-22T08:50:41;11.63;;;9.82;;
35797;SDS011;21918;49.940;7.774;2023-06-22T08:53:07;10.20;;;9.20;;
35797;SDS011;21918;49.940;7.774;2023-06-22T08:55:37;9.63;;;8.82;;
35797;SDS011;21918;49.940;7.774;2023-06-22T08:58:03;11.90;;;10.73;;
35797;SDS011;21918;49.940;7.774;2023-06-22T09:00:30;10.30;;;9.30;;
35797;SDS011;21918;49.940;7.774;2023-06-22T09:02:59;11.85;;;10.68;;
35797;SDS011;21918;49.940;7.774;2023-06-22T09:05:26;10.02;;;9.07;;
35797;SDS011;21918;49.940;7.774;2023-06-22T09:07:55;11.88;;;9.70;;
35797;SDS011;21918;49.940;7.774;2023-06-22T09:10:25;10.63;;;9.52;;
35797;SDS011;21918;49.940;7.774;2023-06-22T09:12:52;10.77;;;9.77;;
35797;SDS011;21918;49.940;7.774;2023-06-22T09:15:18;11.48;;;10.27;;
35797;SDS011;21918;49.940;7.774;2023-06-22T09:17:45;12.32;;;11.10;;
35797;SDS011;21918;49.940;7.774;2023-06-22T09:20:12;11.30;;;10.25;;
35797;SDS011;21918;49.940;7.774;2023-06-22T09:22:39;11.90;;;10.80;;
35797;SDS011;21918;49.940;7.774;2023-06-22T09:25:08;11.60;;;10.52;;
35797;SDS011;21918;49.940;7.774;2023-06-22T09:27:35;10.32;;;9.32;;
35797;SDS011;21918;49.940;7.774;2023-06-22T09:30:01;11.80;;;10.13;;
35797;SDS011;21918;49.940;7.774;2023-06-22T09:32:28;12.00;;;10.80;;
35797;SDS011;21918;49.940;7.774;2023-06-22T09:34:55;10.85;;;9.85;;
35797;SDS011;21918;49.940;7.774;2023-06-22T09:37:22;12.32;;;11.02;;
35797;SDS011;21918;49.940;7.774;2023-06-22T09:39:49;12.82;;;11.52;;
35797;SDS011;21918;49.940;7.774;2023-06-22T09:42:16;12.35;;;11.15;;
35797;SDS011;21918;49.940;7.774;2023-06-22T09:44:43;11.52;;;10.52;;
35797;SDS011;21918;49.940;7.774;2023-06-22T09:47:10;14.15;;;11.32;;
35797;SDS011;21918;49.940;7.774;2023-06-22T09:49:36;14.13;;;12.65;;
35797;SDS011;21918;49.940;7.774;2023-06-22T09:52:03;11.80;;;10.63;;
35797;SDS011;21918;49.940;7.774;2023-06-22T09:54:30;11.68;;;10.52;;
35797;SDS011;21918;49.940;7.774;2023-06-22T09:56:56;12.10;;;10.98;;
35797;SDS011;21918;49.940;7.774;2023-06-22T09:59:24;12.18;;;11.07;;
35797;SDS011;21918;49.940;7.774;2023-06-22T10:01:51;11.38;;;10.32;;
35797;SDS011;21918;49.940;7.774;2023-06-22T10:04:18;12.35;;;11.05;;
35797;SDS011;21918;49.940;7.774;2023-06-22T10:06:45;12.60;;;11.50;;
35797;SDS011;21918;49.940;7.774;2023-06-22T10:09:12;12.93;;;11.70;;
35797;SDS011;21918;49.940;7.774;2023-06-22T10:11:39;11.80;;;10.68;;
35797;SDS011;21918;49.940;7.774;2023-06-22T10:14:05;13.90;;;12.45;;
35797;SDS011;21918;49.940;7.774;2023-06-22T10:16:33;12.13;;;10.93;;
35797;SDS011;21918;49.940;7.774;2023-06-22T10:19:02;13.68;;;12.27;;
35797;SDS011;21918;49.940;7.774;2023-06-22T10:21:32;12.45;;;11.15;;
35797;SDS011;21918;49.940;7.774;2023-06-22T10:24:00;15.05;;;12.05;;
35797;SDS011;21918;49.940;7.774;2023-06-22T10:26:34;12.98;;;11.27;;
35797;SDS011;21918;49.940;7.774;2023-06-22T10:29:01;13.25;;;11.98;;
35797;SDS011;21918;49.940;7.774;2023-06-22T10:31:28;12.77;;;11.57;;
35797;SDS011;21918;49.940;7.774;2023-06-22T10:33:59;12.88;;;11.68;;
35797;SDS011;21918;49.940;7.774;2023-06-22T10:36:25;12.55;;;11.25;;
35797;SDS011;21918;49.940;7.774;2023-06-22T10:38:54;12.02;;;10.70;;
35797;SDS011;21918;49.940;7.774;2023-06-22T10:41:21;12.27;;;11.05;;
35797;SDS011;21918;49.940;7.774;2023-06-22T10:43:49;12.27;;;11.07;;
35797;SDS011;21918;49.940;7.774;2023-06-22T10:46:15;12.75;;;11.45;;
35797;SDS011;21918;49.940;7.774;2023-06-22T10:48:42;11.50;;;10.40;;
35797;SDS011;21918;49.940;7.774;2023-06-22T10:51:10;11.70;;;10.77;;
35797;SDS011;21918;49.940;7.774;2023-06-22T10:53:37;12.27;;;10.90;;
35797;SDS011;21918;49.940;7.774;2023-06-22T10:56:04;11.68;;;10.52;;
35797;SDS011;21918;49.940;7.774;2023-06-22T10:58:30;12.63;;;11.05;;
35797;SDS011;21918;49.940;7.774;2023-06-22T11:00:57;12.13;;;10.88;;
35797;SDS011;21918;49.940;7.774;2023-06-22T11:03:24;11.02;;;10.00;;
35797;SDS011;21918;49.940;7.774;2023-06-22T11:05:50;13.95;;;11.45;;
35797;SDS011;21918;49.940;7.774;2023-06-22T11:08:18;14.73;;;10.88;;
35797;SDS011;21918;49.940;7.774;2023-06-22T11:10:45;15.13;;;11.55;;
35797;SDS011;21918;49.940;7.774;2023-06-22T11:13:13;13.70;;;10.32;;
35797;SDS011;21918;49.940;7.774;2023-06-22T11:15:40;12.20;;;10.82;;
35797;SDS011;21918;49.940;7.774;2023-06-22T11:18:09;13.95;;;10.65;;
35797;SDS011;21918;49.940;7.774;2023-06-22T11:20:36;12.98;;;11.65;;
35797;SDS011;21918;49.940;7.774;2023-06-22T11:23:04;11.07;;;10.05;;
35797;SDS011;21918;49.940;7.774;2023-06-22T11:25:33;10.18;;;9.35;;
35797;SDS011;21918;49.940;7.774;2023-06-22T11:28:04;11.90;;;10.68;;
35797;SDS011;21918;49.940;7.774;2023-06-22T11:30:31;14.20;;;11.43;;
35797;SDS011;21918;49.940;7.774;2023-06-22T11:32:58;11.32;;;10.18;;
35797;SDS011;21918;49.940;7.774;2023-06-22T11:35:28;11.40;;;10.27;;
35797;SDS011;21918;49.940;7.774;2023-06-22T11:37:54;12.25;;;10.90;;
35797;SDS011;21918;49.940;7.774;2023-06-22T11:40:23;11.57;;;10.40;;
35797;SDS011;21918;49.940;7.774;2023-06-22T11:42:51;11.27;;;10.07;;
35797;SDS011;21918;49.940;7.774;2023-06-22T11:45:17;12.23;;;9.35;;
35797;SDS011;21918;49.940;7.774;2023-06-22T11:47:45;12.90;;;10.05;;
35797;SDS011;21918;49.940;7.774;2023-06-22T11:50:12;10.70;;;8.88;;
35797;SDS011;21918;49.940;7.774;2023-06-22T11:52:38;11.60;;;10.48;;
35797;SDS011;21918;49.940;7.774;2023-06-22T11:55:06;10.63;;;9.63;;
35797;SDS011;21918;49.940;7.774;2023-06-22T11:57:34;11.23;;;10.10;;
35797;SDS011;21918;49.940;7.774;2023-06-22T12:00:03;11.10;;;10.00;;
35797;SDS011;21918;49.940;7.774;2023-06-22T12:02:41;11.15;;;10.13;;
35797;SDS011;21918;49.940;7.774;2023-06-22T12:05:08;10.38;;;9.35;;
35797;SDS011;21918;49.940;7.774;2023-06-22T12:07:34;9.75;;;8.88;;
35797;SDS011;21918;49.940;7.774;2023-06-22T12:10:01;10.82;;;8.75;;
35797;SDS011;21918;49.940;7.774;2023-06-22T12:12:27;11.07;;;9.98;;
35797;SDS011;21918;49.940;7.774;2023-06-22T12:14:54;10.13;;;9.00;;
35797;SDS011;21918;49.940;7.774;2023-06-22T12:17:22;10.25;;;9.25;;
35797;SDS011;21918;49.940;7.774;2023-06-22T12:19:49;11.60;;;10.43;;
35797;SDS011;21918;49.940;7.774;2023-06-22T12:22:16;12.93;;;9.10;;
35797;SDS011;21918;49.940;7.774;2023-06-22T12:24:42;10.93;;;9.93;;
35797;SDS011;21918;49.940;7.774;2023-06-22T12:27:09;10.52;;;9.25;;
35797;SDS011;21918;49.940;7.774;2023-06-22T12:29:35;10.85;;;9.85;;
35797;SDS011;21918;49.940;7.774;2023-06-22T12:32:02;14.25;;;9.43;;
35797;SDS011;21918;49.940;7.774;2023-06-22T12:34:30;11.15;;;10.05;;
35797;SDS011;21918;49.940;7.774;2023-06-22T12:36:57;12.38;;;9.63;;
35797;SDS011;21918;49.940;7.774;2023-06-22T12:39:24;14.55;;;9.60;;
35797;SDS011;21918;49.940;7.774;2023-06-22T12:41:50;10.35;;;9.23;;
35797;SDS011;21918;49.940;7.774;2023-06-22T12:44:17;9.10;;;8.27;;
35797;SDS011;21918;49.940;7.774;2023-06-22T12:46:43;9.70;;;8.32;;
35797;SDS011;21918;49.940;7.774;2023-06-22T12:49:10;11.95;;;8.95;;
35797;SDS011;21918;49.940;7.774;2023-06-22T12:51:40;11.52;;;8.65;;
35797;SDS011;21918;49.940;7.774;2023-06-22T12:54:08;9.27;;;7.90;;
35797;SDS011;21918;49.940;7.774;2023-06-22T12:56:35;12.48;;;8.55;;
35797;SDS011;21918;49.940;7.774;2023-06-22T12:59:06;12.40;;;9.73;;
35797;SDS011;21918;49.940;7.774;2023-06-22T13:01:32;10.10;;;9.00;;
35797;SDS011;21918;49.940;7.774;2023-06-22T13:03:59;11.85;;;8.63;;
35797;SDS011;21918;49.940;7.774;2023-06-22T13:06:26;9.48;;;8.20;;
35797;SDS011;21918;49.940;7.774;2023-06-22T13:08:53;8.32;;;7.53;;
35797;SDS011;21918;49.940;7.774;2023-06-22T13:11:20;9.48;;;8.57;;
35797;SDS011;21918;49.940;7.774;2023-06-22T13:13:49;10.15;;;7.90;;
35797;SDS011;21918;49.940;7.774;2023-06-22T13:16:16;8.55;;;7.75;;
35797;SDS011;21918;49.940;7.774;2023-06-22T13:18:42;12.85;;;7.97;;
35797;SDS011;21918;49.940;7.774;2023-06-22T13:21:09;9.05;;;8.15;;
35797;SDS011;21918;49.940;7.774;2023-06-22T13:23:36;12.52;;;8.30;;
35797;SDS011;21918;49.940;7.774;2023-06-22T13:26:04;8.68;;;7.63;;
35797;SDS011;21918;49.940;7.774;2023-06-22T13:28:31;11.85;;;8.32;;
35797;SDS011;21918;49.940;7.774;2023-06-22T13:30:58;8.82;;;7.90;;
35797;SDS011;21918;49.940;7.774;2023-06-22T13:33:24;8.93;;;8.05;;
35797;SDS011;21918;49.940;7.774;2023-06-22T13:35:51;9.85;;;8.60;;
35797;SDS011;21918;49.940;7.774;2023-06-22T13:38:17;10.45;;;8.18;;
35797;SDS011;21918;49.940;7.774;2023-06-22T13:40:44;13.10;;;8.88;;
35797;SDS011;21918;49.940;7.774;2023-06-22T13:43:13;9.10;;;8.20;;
35797;SDS011;21918;49.940;7.774;2023-06-22T13:45:43;8.23;;;7.43;;
35797;SDS011;21918;49.940;7.774;2023-06-22T13:48:10;8.85;;;7.47;;
35797;SDS011;21918;49.940;7.774;2023-06-22T13:50:37;10.13;;;7.75;;
35797;SDS011;21918;49.940;7.774;2023-06-22T13:53:06;10.63;;;7.20;;
35797;SDS011;21918;49.940;7.774;2023-06-22T13:55:33;10.30;;;7.60;;
35797;SDS011;21918;49.940;7.774;2023-06-22T13:57:59;9.18;;;7.43;;
35797;SDS011;21918;49.940;7.774;2023-06-22T14:00:27;9.57;;;8.07;;
35797;SDS011;21918;49.940;7.774;2023-06-22T14:02:54;9.73;;;7.57;;
35797;SDS011;21918;49.940;7.774;2023-06-22T14:05:22;7.30;;;6.65;;
35797;SDS011;21918;49.940;7.774;2023-06-22T14:07:51;10.45;;;6.97;;
35797;SDS011;21918;49.940;7.774;2023-06-22T14:10:18;8.25;;;6.30;;
35797;SDS011;21918;49.940;7.774;2023-06-22T14:12:45;8.82;;;6.43;;
35797;SDS011;21918;49.940;7.774;2023-06-22T14:15:11;10.65;;;6.13;;
35797;SDS011;21918;49.940;7.774;2023-06-22T14:17:42;12.13;;;7.63;;
35797;SDS011;21918;49.940;7.774;2023-06-22T14:20:09;9.85;;;6.35;;
35797;SDS011;21918;49.940;7.774;2023-06-22T14:22:36;13.38;;;6.68;;
35797;SDS011;21918;49.940;7.774;2023-06-22T14:25:04;10.52;;;5.63;;
35797;SDS011;21918;49.940;7.774;2023-06-22T14:27:32;9.40;;;6.43;;
35797;SDS011;21918;49.940;7.774;2023-06-22T14:29:58;7.97;;;6.75;;
35797;SDS011;21918;49.940;7.774;2023-06-22T14:32:25;12.93;;;6.68;;
35797;SDS011;21918;49.940;7.774;2023-06-22T14:34:56;9.02;;;6.20;;
35797;SDS011;21918;49.940;7.774;2023-06-22T14:37:22;8.57;;;6.40;;
35797;SDS011;21918;49.940;7.774;2023-06-22T14:39:49;7.80;;;5.57;;